Vestimar — 5IM835 — position and weather

sailwx.info

Track history (hours):
 
Tides and Currents Weather Stations Pressure Air Temp Water Temp Dewpoint Dewpoint Depression Visibility Wind Speed Wind Dir Waves Ship Positions

Vestimar

Last reported at 2017-Nov-18 05:04 UTC. Time now 2017-Nov-22 22:03 UTC.
Position N 45°30' E 036°44'.

Length 114 m; draft 2.7 m.

Type: Cargo ship. MMSI: 677073500.

Date/timePositionNaut miles runAvg speedWind from/ knotsBaromVisibWave heightAir tempDewpointWater temp
2017-Nov-18 05:04N 45°30' E 036°44'0 6.2
2017-Nov-18 05:00N 45°30' E 036°44'3 6.8
2017-Nov-18 04:30N 45°27' E 036°42'4 7.2
2017-Nov-18 04:00N 45°23' E 036°41'3 6.7
2017-Nov-18 03:30N 45°20' E 036°38'3 6.6
2017-Nov-18 03:00N 45°19' E 036°34'4 7.5
2017-Nov-18 02:30N 45°18' E 036°29'3 5.8
2017-Nov-18 02:00N 45°15' E 036°28'3 5.4
2017-Nov-18 01:23N 45°12' E 036°28'  
2017-Nov-14 09:05N 40°53' E 029°01'1 3.6
2017-Nov-14 08:43N 40°51' E 029°01'1 3.5
2017-Nov-14 08:30N 40°51' E 029°00'  
Track history (hours):
 
Tides and Currents Weather Stations Pressure Air Temp Water Temp Dewpoint Dewpoint Depression Visibility Wind Speed Wind Dir Waves Ship Positions

Vestimar

Last reported at 2017-Nov-18 05:04 UTC. Time now 2017-Nov-22 22:03 UTC.
Position N 45°30' E 036°44'.

Length 114 m; draft 2.7 m.

Type: Cargo ship. MMSI: 677073500.

Date/timePositionNaut miles runAvg speedWind from/ knotsBaromVisibWave heightAir tempDewpointWater temp
2017-Nov-18 05:04N 45°30' E 036°44'0 6.2
2017-Nov-18 05:00N 45°30' E 036°44'3 6.8
2017-Nov-18 04:30N 45°27' E 036°42'4 7.2
2017-Nov-18 04:00N 45°23' E 036°41'3 6.7
2017-Nov-18 03:30N 45°20' E 036°38'3 6.6
2017-Nov-18 03:00N 45°19' E 036°34'4 7.5
2017-Nov-18 02:30N 45°18' E 036°29'3 5.8
2017-Nov-18 02:00N 45°15' E 036°28'3 5.4
2017-Nov-18 01:23N 45°12' E 036°28'  
2017-Nov-14 09:05N 40°53' E 029°01'1 3.6
2017-Nov-14 08:43N 40°51' E 029°01'1 3.5
2017-Nov-14 08:30N 40°51' E 029°00'  

Dump ship's entire track history